Time;durP1;ratioP1;P1;durP2;ratioP2;P2;SDS_P1;SDS_P2;PMS_P1;PMS_P2;Temp;Humidity;BMP_temperature;BMP_pressure;BME280_temperature;BME280_humidity;BME280_pressure;Samples;Min_cycle;Max_cycle;Signal;HPM_P1;HPM_P2
2022/03/27 00:00:49;;;;;;;2.42;2.22;;;;;;;17.02;42.75;99269.98;1797474;79;21274;-64
2022/03/27 00:03:16;;;;;;;3.08;2.30;;;;;;;17.01;42.74;99268.33;1795872;79;21541;-64
2022/03/27 00:05:43;;;;;;;3.60;2.30;;;;;;;17.00;42.74;99269.92;1791252;79;21057;-64
2022/03/27 00:08:10;;;;;;;3.08;2.55;;;;;;;16.99;42.73;99269.60;1783249;80;21540;-63
2022/03/27 00:13:09;;;;;;;2.47;2.17;;;;;;;16.96;42.72;99258.80;1736322;80;21246;-64
2022/03/27 00:15:36;;;;;;;3.05;2.10;;;;;;;16.95;42.71;99261.70;1771140;79;21341;-64
2022/03/27 00:18:03;;;;;;;3.50;2.30;;;;;;;16.94;42.70;99250.16;1766091;81;21043;-64
2022/03/27 00:20:31;;;;;;;2.87;2.45;;;;;;;16.93;42.70;99281.22;1765988;81;21050;-64
2022/03/27 00:22:58;;;;;;;2.80;2.22;;;;;;;16.91;42.69;99276.08;1779580;79;22048;-65
2022/03/27 00:25:25;;;;;;;2.67;2.15;;;;;;;16.90;42.68;99277.09;1797388;79;21154;-64
2022/03/27 00:27:51;;;;;;;3.08;2.40;;;;;;;16.88;42.67;99281.37;1797522;79;20981;-64
2022/03/27 00:30:18;;;;;;;2.60;2.08;;;;;;;16.86;42.66;99280.77;1797490;79;21177;-64
2022/03/27 00:32:45;;;;;;;2.40;2.20;;;;;;;16.86;42.67;99286.14;1797439;79;21021;-63
2022/03/27 00:35:11;;;;;;;2.50;2.02;;;;;;;16.85;42.67;99284.48;1797391;79;21016;-64
2022/03/27 00:37:38;;;;;;;2.50;2.25;;;;;;;16.83;42.64;99285.22;1797423;79;21246;-64
2022/03/27 00:40:08;;;;;;;2.45;2.22;;;;;;;16.82;42.63;99296.98;1797063;79;21107;-64
2022/03/27 00:42:36;;;;;;;2.95;2.05;;;;;;;16.81;42.63;99294.51;1797552;79;21041;-65
2022/03/27 00:45:04;;;;;;;2.30;2.02;;;;;;;16.79;42.62;99296.06;1797399;79;21077;-64
2022/03/27 00:47:31;;;;;;;2.40;2.20;;;;;;;16.78;42.60;99294.41;1797501;79;21041;-64
2022/03/27 00:49:58;;;;;;;3.15;2.30;;;;;;;16.77;42.61;99284.73;1797528;79;21316;-64
2022/03/27 00:52:25;;;;;;;2.85;2.12;;;;;;;16.75;42.58;99309.62;1797375;79;21553;-65
2022/03/27 00:54:51;;;;;;;2.27;1.75;;;;;;;16.74;42.57;99310.64;1796413;79;21080;-65
2022/03/27 00:57:17;;;;;;;4.05;1.80;;;;;;;16.73;42.56;99302.31;1783610;79;21232;-65
2022/03/27 00:59:44;;;;;;;3.45;1.92;;;;;;;16.72;42.57;99306.02;1790006;79;21027;-65
2022/03/27 01:02:10;;;;;;;2.52;2.00;;;;;;;16.71;42.56;99311.09;1796341;79;21973;-63
2022/03/27 01:04:42;;;;;;;3.10;1.80;;;;;;;16.69;42.56;99308.63;1796311;79;20974;-64
2022/03/27 01:07:08;;;;;;;1.90;1.80;;;;;;;16.68;42.54;99312.86;1739441;79;21088;-64
2022/03/27 01:09:38;;;;;;;2.30;2.10;;;;;;;16.67;42.54;99314.73;1785049;79;21581;-65
2022/03/27 01:12:22;;;;;;;1.80;1.70;;;;;;;16.65;42.55;99320.83;1790720;79;21033;-66
2022/03/27 01:14:52;;;;;;;2.40;1.77;;;;;;;16.64;42.53;99331.25;1793049;79;21787;-64
2022/03/27 01:17:25;;;;;;;2.55;2.08;;;;;;;16.62;42.53;99329.30;1792487;80;21069;-65
2022/03/27 01:19:55;;;;;;;1.98;1.70;;;;;;;16.60;42.54;99330.57;1792785;80;20990;-65
2022/03/27 01:22:22;;;;;;;1.98;1.77;;;;;;;16.59;42.56;99336.46;1792606;80;21455;-65
2022/03/27 01:24:50;;;;;;;2.35;1.67;;;;;;;16.57;42.54;99339.84;1792660;80;21135;-65
2022/03/27 01:27:17;;;;;;;2.30;1.72;;;;;;;16.56;42.54;99338.75;1792686;80;21223;-64
2022/03/27 01:29:45;;;;;;;2.08;1.70;;;;;;;16.55;42.54;99339.77;1792591;80;21007;-64
2022/03/27 01:32:14;;;;;;;2.15;1.72;;;;;;;16.54;42.53;99351.03;1783986;79;21042;-64
2022/03/27 01:34:47;;;;;;;1.82;1.70;;;;;;;16.53;42.52;99364.64;1783462;80;21006;-65
2022/03/27 01:37:14;;;;;;;2.15;1.72;;;;;;;16.51;42.51;99368.37;1783167;80;21051;-65
2022/03/27 01:39:40;;;;;;;2.02;1.80;;;;;;;16.49;42.51;99373.11;1783256;80;21144;-64
2022/03/27 01:42:08;;;;;;;2.30;1.95;;;;;;;16.48;42.52;99378.70;1783244;80;21030;-65
2022/03/27 01:44:35;;;;;;;2.27;1.92;;;;;;;16.47;42.52;99381.07;1783260;80;21022;-64
2022/03/27 01:47:01;;;;;;;2.33;1.72;;;;;;;16.46;42.51;99378.10;1783205;79;20978;-64
2022/03/27 01:49:29;;;;;;;2.62;1.92;;;;;;;16.44;42.48;99376.16;1764859;81;21044;-64
2022/03/27 01:51:55;;;;;;;1.77;1.67;;;;;;;16.44;42.50;99399.77;1765007;81;21861;-64
2022/03/27 01:54:22;;;;;;;1.70;1.42;;;;;;;16.43;42.48;99394.61;1764829;81;21060;-65
2022/03/27 01:56:49;;;;;;;1.82;1.60;;;;;;;16.41;42.49;99397.50;1755976;81;21022;-64
2022/03/27 01:59:16;;;;;;;2.08;1.75;;;;;;;16.41;42.48;99400.70;1762406;80;21486;-65
2022/03/27 02:01:42;;;;;;;2.55;1.90;;;;;;;16.40;42.47;99401.72;1783760;80;21053;-64
2022/03/27 02:04:10;;;;;;;2.40;1.50;;;;;;;16.38;42.46;99400.63;1781812;80;21462;-65
2022/03/27 02:06:37;;;;;;;2.00;1.80;;;;;;;16.39;42.46;99401.44;1752720;81;21002;-64
2022/03/27 02:10:44;;;;;;;2.33;1.98;;;;;;;16.41;42.47;99404.72;1797582;79;28461;-65
2022/03/27 02:13:14;;;;;;;2.08;1.75;;;;;;;16.36;42.45;99412.58;1757352;80;20982;-64
2022/03/27 02:15:41;;;;;;;2.47;1.75;;;;;;;16.35;42.45;99425.16;1753749;81;21189;-64
2022/03/27 02:18:11;;;;;;;3.27;1.60;;;;;;;16.34;42.46;99436.09;1755818;81;21012;-64
2022/03/27 02:20:39;;;;;;;1.80;1.70;;;;;;;16.33;42.45;99429.92;1695259;83;21054;-64
2022/03/27 02:23:07;;;;;;;2.35;1.50;;;;;;;16.31;42.46;99438.16;1698886;83;20997;-64
2022/03/27 02:25:34;;;;;;;1.65;1.55;;;;;;;16.29;42.43;99440.23;1694750;84;20949;-64
2022/03/27 02:28:00;;;;;;;1.50;1.40;;;;;;;16.29;42.45;99441.58;1694782;84;21265;-64
2022/03/27 02:30:27;;;;;;;2.62;1.60;;;;;;;16.28;42.47;99435.09;1694778;84;21088;-66
2022/03/27 02:32:53;;;;;;;1.67;1.50;;;;;;;16.27;42.46;99448.20;1694956;84;21466;-65
2022/03/27 02:35:20;;;;;;;1.45;1.35;;;;;;;16.25;42.44;99456.45;1694649;84;21036;-64
2022/03/27 02:37:47;;;;;;;2.05;1.47;;;;;;;16.24;42.44;99449.42;1694835;84;21088;-65
2022/03/27 02:40:15;;;;;;;3.50;1.72;;;;;;;16.24;42.44;99457.98;1695642;83;21146;-64
2022/03/27 02:42:43;;;;;;;2.37;1.50;;;;;;;16.24;42.44;99458.80;1694897;84;22051;-65
2022/03/27 02:45:10;;;;;;;2.33;1.45;;;;;;;16.21;42.44;99453.89;1694702;84;21051;-64
2022/03/27 02:47:37;;;;;;;2.37;1.60;;;;;;;16.20;42.44;99461.61;1694817;84;21025;-65
2022/03/27 02:50:05;;;;;;;1.75;1.60;;;;;;;16.20;42.43;99456.25;1694891;84;21009;-65
2022/03/27 02:52:33;;;;;;;1.45;1.35;;;;;;;16.19;42.42;99468.02;1695029;84;21127;-65
2022/03/27 02:54:59;;;;;;;2.12;1.47;;;;;;;16.18;42.44;99468.22;1694986;83;21072;-65
2022/03/27 02:57:26;;;;;;;3.75;1.90;;;;;;;16.17;42.45;99474.11;1695006;83;21024;-64
2022/03/27 02:59:54;;;;;;;1.70;1.40;;;;;;;16.16;42.43;99472.45;1711405;81;21077;-64
2022/03/27 03:02:21;;;;;;;1.80;1.40;;;;;;;16.16;42.43;99478.33;1723696;83;21068;-64
2022/03/27 03:04:47;;;;;;;1.60;1.37;;;;;;;16.15;42.42;99484.71;1723760;83;22693;-65
2022/03/27 03:07:14;;;;;;;1.77;1.50;;;;;;;16.12;42.44;99486.78;1723610;83;21110;-64
2022/03/27 03:09:42;;;;;;;1.55;1.40;;;;;;;16.11;42.43;99489.69;1720320;83;21116;-64
2022/03/27 03:12:11;;;;;;;1.30;1.20;;;;;;;16.12;42.42;99495.34;1714037;83;21010;-64
2022/03/27 03:14:38;;;;;;;1.57;1.42;;;;;;;16.11;42.41;99491.03;1687256;85;21024;-64
2022/03/27 03:17:05;;;;;;;1.85;1.50;;;;;;;16.09;42.40;99493.92;1687320;85;21834;-64
2022/03/27 03:19:33;;;;;;;2.12;1.50;;;;;;;16.09;42.40;99497.13;1687223;85;20998;-64
2022/03/27 03:22:00;;;;;;;1.80;1.50;;;;;;;16.07;42.41;99495.98;1721179;82;21003;-64
2022/03/27 03:24:27;;;;;;;2.27;1.62;;;;;;;16.06;42.41;99494.33;1715955;82;21085;-64
2022/03/27 03:26:54;;;;;;;1.55;1.40;;;;;;;16.06;42.41;99502.89;1715700;83;21532;-64
2022/03/27 03:29:22;;;;;;;1.92;1.55;;;;;;;16.05;42.40;99499.89;1711098;83;21311;-64
2022/03/27 03:31:49;;;;;;;1.40;1.25;;;;;;;16.03;42.40;99506.81;1686862;85;21045;-64
2022/03/27 03:34:16;;;;;;;1.47;1.37;;;;;;;16.03;42.40;99506.81;1686784;85;21482;-64
2022/03/27 03:36:43;;;;;;;1.40;1.30;;;;;;;16.01;42.42;99520.09;1686805;85;21056;-64
2022/03/27 03:39:10;;;;;;;1.40;1.30;;;;;;;16.01;42.40;99516.08;1686810;85;21060;-64
2022/03/27 03:41:36;;;;;;;1.30;1.20;;;;;;;16.01;42.37;99520.09;1686766;85;21282;-65
2022/03/27 03:44:04;;;;;;;1.47;1.20;;;;;;;16.00;42.40;99525.98;1686792;85;21006;-65
2022/03/27 03:46:30;;;;;;;1.17;1.10;;;;;;;15.99;42.38;99526.19;1687709;83;21545;-63
2022/03/27 03:48:57;;;;;;;1.85;1.60;;;;;;;15.98;42.38;99540.10;1686903;85;21639;-64
2022/03/27 03:51:24;;;;;;;1.37;1.22;;;;;;;15.97;42.38;99537.63;1686682;85;21013;-66
2022/03/27 03:53:50;;;;;;;1.80;1.32;;;;;;;15.96;42.38;99541.35;1686712;85;21407;-65
2022/03/27 03:56:17;;;;;;;1.47;1.37;;;;;;;15.95;42.38;99551.22;1687047;85;21021;-65
2022/03/27 03:58:45;;;;;;;1.60;1.50;;;;;;;15.94;42.35;99546.91;1689796;82;20982;-64
2022/03/27 04:01:11;;;;;;;1.30;1.20;;;;;;;15.94;42.37;99550.11;1751545;82;21006;-63
2022/03/27 04:03:39;;;;;;;1.50;1.32;;;;;;;15.93;42.35;99561.32;1743631;82;21597;-65
2022/03/27 04:06:07;;;;;;;1.72;1.20;;;;;;;15.92;42.34;99566.39;1721609;83;21135;-65
2022/03/27 04:08:35;;;;;;;1.47;1.30;;;;;;;15.91;42.34;99568.74;1721524;83;21530;-64
2022/03/27 04:11:02;;;;;;;1.57;1.45;;;;;;;15.91;42.34;99576.26;1680146;84;21026;-65
2022/03/27 04:13:30;;;;;;;2.00;1.40;;;;;;;15.89;42.36;99587.70;1679271;85;21065;-64
2022/03/27 04:15:57;;;;;;;1.57;1.47;;;;;;;15.88;42.34;99568.66;1679400;85;21537;-64
2022/03/27 04:18:25;;;;;;;1.37;1.20;;;;;;;15.87;42.34;99571.01;1679272;85;21010;-64
2022/03/27 04:20:52;;;;;;;1.98;1.50;;;;;;;15.87;42.35;99586.27;1680288;84;21542;-64
2022/03/27 04:23:20;;;;;;;1.87;1.70;;;;;;;15.85;42.34;99599.86;1679316;85;21014;-66
2022/03/27 04:25:47;;;;;;;2.33;1.42;;;;;;;15.85;42.33;99597.18;1679289;85;21074;-64
2022/03/27 04:28:14;;;;;;;1.77;1.65;;;;;;;15.84;42.33;99615.64;1718578;83;21523;-65
2022/03/27 04:30:42;;;;;;;1.35;1.25;;;;;;;15.84;42.33;99618.31;1707807;84;21039;-64
2022/03/27 04:33:08;;;;;;;1.80;1.50;;;;;;;15.83;42.33;99607.28;1707741;84;21037;-64
2022/03/27 04:35:35;;;;;;;1.90;1.25;;;;;;;15.82;42.33;99619.53;1707957;84;21553;-65
2022/03/27 04:38:03;;;;;;;1.30;1.20;;;;;;;15.81;42.32;99628.61;1695475;84;21109;-64
2022/03/27 04:40:29;;;;;;;1.55;1.40;;;;;;;15.80;42.34;99645.20;1679330;85;21279;-65
2022/03/27 04:42:56;;;;;;;1.60;1.50;;;;;;;15.80;42.33;99644.36;1679423;85;22154;-64
2022/03/27 04:45:23;;;;;;;1.40;1.30;;;;;;;15.80;42.33;99655.92;1679275;85;21040;-64
2022/03/27 04:47:50;;;;;;;1.42;1.00;;;;;;;15.78;42.33;99659.81;1679377;85;21029;-64
2022/03/27 04:50:17;;;;;;;1.32;1.22;;;;;;;15.77;42.33;99675.58;1679191;85;21081;-65
2022/03/27 04:52:43;;;;;;;1.50;1.40;;;;;;;15.76;42.33;99680.61;1679494;85;21478;-64
2022/03/27 04:55:10;;;;;;;1.52;1.20;;;;;;;15.76;42.33;99688.16;1680255;84;21396;-64
2022/03/27 04:57:39;;;;;;;1.10;1.00;;;;;;;15.76;42.34;99667.22;1679287;85;21042;-64
2022/03/27 05:00:11;;;;;;;1.45;1.35;;;;;;;15.75;42.31;99678.45;1698186;82;21058;-64
2022/03/27 05:02:38;;;;;;;1.30;1.20;;;;;;;15.74;42.32;99664.74;1743508;82;21090;-65
2022/03/27 05:05:07;;;;;;;1.45;1.30;;;;;;;15.73;42.33;99681.86;1707866;84;21081;-64
2022/03/27 05:07:36;;;;;;;1.52;1.30;;;;;;;15.73;42.31;99685.88;1743589;81;21972;-65
2022/03/27 05:10:04;;;;;;;1.25;1.15;;;;;;;15.73;42.33;99696.59;1707664;82;21061;-65
2022/03/27 05:12:31;;;;;;;1.20;1.12;;;;;;;15.72;42.32;99697.56;1724672;82;21523;-64
2022/03/27 05:14:58;;;;;;;1.32;1.22;;;;;;;15.71;42.30;99699.95;1713932;83;21015;-64
2022/03/27 05:17:24;;;;;;;1.35;1.17;;;;;;;15.71;42.32;99697.27;1713832;83;21041;-65
2022/03/27 05:19:52;;;;;;;1.55;1.30;;;;;;;15.71;42.33;99710.14;1713877;82;21018;-64
2022/03/27 05:22:19;;;;;;;1.32;1.22;;;;;;;15.70;42.33;99703.64;1713777;83;21541;-65
2022/03/27 05:24:46;;;;;;;1.70;1.27;;;;;;;15.70;42.32;99713.02;1714103;82;20999;-65
2022/03/27 05:27:18;;;;;;;1.40;1.30;;;;;;;15.70;42.32;99704.98;1714015;82;21581;-65
2022/03/27 05:29:45;;;;;;;1.82;1.50;;;;;;;15.70;42.33;99714.36;1714815;82;21157;-65
2022/03/27 05:32:11;;;;;;;1.10;1.10;;;;;;;15.70;42.33;99718.37;1714974;82;21241;-65
2022/03/27 05:34:38;;;;;;;1.55;1.45;;;;;;;15.69;42.34;99716.22;1738541;82;21499;-65
2022/03/27 05:37:06;;;;;;;1.52;1.30;;;;;;;15.69;42.33;99726.11;1743751;81;20995;-65
2022/03/27 05:39:32;;;;;;;2.08;1.47;;;;;;;15.69;42.35;99734.14;1743444;82;21574;-64
2022/03/27 05:41:59;;;;;;;1.25;1.15;;;;;;;15.69;42.34;99731.47;1743457;82;21054;-64
2022/03/27 05:44:26;;;;;;;1.30;1.15;;;;;;;15.69;42.34;99758.25;1743498;81;21220;-64
2022/03/27 05:46:53;;;;;;;1.52;1.27;;;;;;;15.69;42.33;99744.86;1720392;82;21023;-65
2022/03/27 05:49:20;;;;;;;1.40;1.15;;;;;;;15.68;42.33;99749.39;1713928;83;21518;-64
2022/03/27 05:51:46;;;;;;;1.35;1.25;;;;;;;15.69;42.34;99744.86;1713901;83;21570;-64
2022/03/27 05:54:13;;;;;;;1.10;1.00;;;;;;;15.69;42.33;99756.39;1713793;83;21003;-63
2022/03/27 05:56:40;;;;;;;1.20;1.10;;;;;;;15.68;42.33;99757.43;1713888;82;21248;-63
2022/03/27 05:59:07;;;;;;;1.22;1.12;;;;;;;15.68;42.33;99754.75;1721609;82;21101;-64
2022/03/27 06:01:34;;;;;;;1.20;1.10;;;;;;;15.70;42.31;99761.22;1743506;82;21000;-64
2022/03/27 06:04:00;;;;;;;1.10;0.98;;;;;;;15.69;42.31;99767.63;1683855;84;21656;-64
2022/03/27 06:06:29;;;;;;;1.30;1.20;;;;;;;15.70;42.31;99770.59;1679192;85;21150;-65
2022/03/27 06:08:57;;;;;;;0.85;0.85;;;;;;;15.70;42.31;99770.59;1679204;85;21565;-65
2022/03/27 06:11:24;;;;;;;1.35;1.25;;;;;;;15.71;42.30;99784.31;1688682;84;20998;-65
2022/03/27 06:13:51;;;;;;;1.22;1.12;;;;;;;15.72;42.27;99784.61;1691840;84;21032;-65
2022/03/27 06:16:18;;;;;;;1.30;1.20;;;;;;;15.72;42.27;99784.12;1691814;84;21049;-65
2022/03/27 06:18:47;;;;;;;1.67;1.50;;;;;;;15.73;42.26;99791.66;1692022;84;21269;-64
2022/03/27 06:21:13;;;;;;;1.20;1.10;;;;;;;15.73;42.24;99797.84;1693163;83;21162;-64
2022/03/27 06:23:42;;;;;;;1.02;1.00;;;;;;;15.75;42.24;99796.83;1691813;84;20997;-64
2022/03/27 06:26:09;;;;;;;1.20;1.10;;;;;;;15.76;42.22;99808.69;1692087;84;21013;-64
2022/03/27 06:28:36;;;;;;;2.05;1.40;;;;;;;15.76;42.21;99806.50;1691999;84;21517;-65
2022/03/27 06:31:04;;;;;;;1.20;1.10;;;;;;;15.77;42.20;99810.84;1691920;84;21052;-65
2022/03/27 06:33:30;;;;;;;1.40;1.30;;;;;;;15.78;42.19;99816.50;1691774;84;21324;-64
2022/03/27 06:35:56;;;;;;;1.20;1.07;;;;;;;15.79;42.17;99824.86;1691749;84;21042;-65
2022/03/27 06:38:23;;;;;;;1.17;1.02;;;;;;;15.79;42.16;99821.66;1721182;82;21009;-65
2022/03/27 06:40:49;;;;;;;0.93;0.93;;;;;;;15.80;42.14;99817.97;1728426;82;21011;-65
2022/03/27 06:43:16;;;;;;;1.72;1.57;;;;;;;15.81;42.13;99825.48;1738475;82;21007;-65
2022/03/27 06:45:42;;;;;;;1.25;1.15;;;;;;;15.81;42.11;99833.52;1738398;82;21278;-64
2022/03/27 06:48:09;;;;;;;1.17;1.10;;;;;;;15.83;42.10;99838.98;1738336;82;21034;-65
2022/03/27 06:50:35;;;;;;;0.82;0.82;;;;;;;15.85;42.10;99829.41;1738370;82;21022;-64
2022/03/27 06:53:03;;;;;;;1.57;1.20;;;;;;;15.86;42.06;99832.41;1736881;82;20987;-65
2022/03/27 06:55:30;;;;;;;1.02;0.90;;;;;;;15.87;42.07;99834.87;1691898;84;21052;-64
2022/03/27 06:57:56;;;;;;;1.70;1.40;;;;;;;15.88;42.04;99837.88;1692139;84;21269;-65
2022/03/27 07:03:13;;;;;;;0.90;0.90;;;;;;;15.88;42.02;99864.66;1721002;83;21073;-65
2022/03/27 07:05:41;;;;;;;0.95;0.95;;;;;;;15.90;42.00;99844.38;1720299;83;21040;-65
2022/03/27 07:08:10;;;;;;;1.00;0.95;;;;;;;15.88;42.01;99853.95;1721121;83;21509;-64
2022/03/27 07:10:37;;;;;;;0.85;0.85;;;;;;;15.88;42.00;99855.28;1718127;83;21131;-65
2022/03/27 07:13:07;;;;;;;1.07;1.07;;;;;;;15.90;41.97;99862.61;1715386;83;21010;-65
2022/03/27 07:15:35;;;;;;;0.90;0.90;;;;;;;15.89;41.95;99867.64;1715417;83;21041;-65
2022/03/27 07:18:02;;;;;;;1.57;1.10;;;;;;;15.90;41.94;99874.67;1715470;83;21014;-65
2022/03/27 07:20:32;;;;;;;1.45;1.20;;;;;;;15.90;41.93;99888.06;1715560;83;21545;-65
2022/03/27 07:23:04;;;;;;;1.27;1.12;;;;;;;15.91;41.91;99897.73;1715677;83;21271;-64
2022/03/27 07:25:35;;;;;;;1.37;1.25;;;;;;;15.91;41.87;99873.63;1715320;83;21089;-64
2022/03/27 07:28:04;;;;;;;1.20;1.10;;;;;;;15.92;41.87;99880.65;1714559;83;21085;-64
2022/03/27 07:30:31;;;;;;;1.30;1.20;;;;;;;15.92;41.84;99904.77;1715365;83;21045;-65
2022/03/27 07:32:58;;;;;;;1.37;1.20;;;;;;;15.94;41.81;99906.42;1715539;83;21013;-65
2022/03/27 07:35:26;;;;;;;1.15;0.95;;;;;;;15.96;41.79;99909.73;1715458;83;21143;-65
2022/03/27 07:37:53;;;;;;;1.00;1.00;;;;;;;15.96;41.77;99899.02;1715384;83;21041;-65
2022/03/27 07:40:21;;;;;;;1.47;1.00;;;;;;;15.97;41.75;99908.69;1715370;83;21065;-65
2022/03/27 07:42:53;;;;;;;1.17;1.02;;;;;;;15.99;41.71;99916.02;1715504;83;21542;-65
2022/03/27 07:45:24;;;;;;;1.10;1.00;;;;;;;15.99;41.70;99922.72;1747977;82;21506;-67
2022/03/27 07:47:51;;;;;;;1.12;1.02;;;;;;;16.00;41.68;99912.33;1749306;82;21364;-64
2022/03/27 07:50:19;;;;;;;0.98;0.95;;;;;;;16.00;41.65;99917.69;1751333;82;21483;-64
2022/03/27 07:52:46;;;;;;;1.20;1.10;;;;;;;16.01;41.63;99904.59;1751471;82;21038;-65
2022/03/27 07:55:14;;;;;;;2.25;1.10;;;;;;;16.02;41.63;99903.58;1751328;82;21045;-65
2022/03/27 07:57:42;;;;;;;1.12;1.02;;;;;;;16.04;41.61;99896.16;1715530;83;21017;-65
2022/03/27 08:00:11;;;;;;;2.25;0.98;;;;;;;16.04;41.60;99901.00;1715429;83;21155;-64
2022/03/27 08:02:41;;;;;;;1.10;1.00;;;;;;;16.05;41.60;99923.25;1750470;82;21018;-64
2022/03/27 08:05:09;;;;;;;1.00;1.00;;;;;;;16.07;41.54;99917.18;1751494;82;21046;-64
2022/03/27 08:07:35;;;;;;;0.98;0.98;;;;;;;16.09;41.51;99917.31;1751487;82;20999;-65
2022/03/27 08:10:05;;;;;;;1.85;1.20;;;;;;;16.08;41.49;99916.98;1751526;82;21096;-65
2022/03/27 08:12:35;;;;;;;1.02;0.93;;;;;;;16.10;41.49;99936.37;1756558;81;20999;-65
2022/03/27 08:15:04;;;;;;;1.27;1.10;;;;;;;16.11;41.46;99939.90;1756752;81;20984;-64
2022/03/27 08:17:32;;;;;;;1.20;1.10;;;;;;;16.12;41.43;99953.59;1756799;81;21006;-64
2022/03/27 08:19:59;;;;;;;1.17;1.07;;;;;;;16.14;41.42;99963.60;1755725;81;21081;-65
2022/03/27 08:22:26;;;;;;;1.30;1.15;;;;;;;16.15;41.42;99959.06;1756882;81;21022;-64
2022/03/27 08:24:54;;;;;;;2.15;1.15;;;;;;;16.16;41.39;99958.05;1756785;81;21906;-63
2022/03/27 08:27:21;;;;;;;1.57;1.30;;;;;;;16.16;41.38;99969.59;1756674;81;21002;-64
2022/03/27 08:29:48;;;;;;;0.90;0.90;;;;;;;16.17;41.37;99975.28;1756893;81;21081;-64
2022/03/27 08:32:16;;;;;;;1.15;1.05;;;;;;;16.18;41.35;99984.14;1756767;81;21026;-64
2022/03/27 08:34:45;;;;;;;1.10;1.00;;;;;;;16.18;41.32;99984.14;1756835;81;21081;-64
2022/03/27 08:37:14;;;;;;;1.80;1.15;;;;;;;16.19;41.31;99975.91;1755759;81;21510;-65
2022/03/27 08:39:41;;;;;;;1.60;1.30;;;;;;;16.20;41.32;99978.88;1756859;81;21022;-65
2022/03/27 08:42:07;;;;;;;1.07;1.00;;;;;;;16.20;41.32;99988.27;1756870;81;21092;-64
2022/03/27 08:44:37;;;;;;;1.27;1.17;;;;;;;16.23;41.28;99976.34;1720806;83;21033;-65
2022/03/27 08:47:08;;;;;;;1.00;1.00;;;;;;;16.24;41.27;99983.34;1721406;83;21049;-64
2022/03/27 08:49:41;;;;;;;1.62;0.98;;;;;;;16.25;41.25;99988.50;1718518;83;22500;-64
2022/03/27 08:52:23;;;;;;;1.02;1.00;;;;;;;16.27;41.24;99982.95;1730016;82;27186;-66
2022/03/27 08:55:19;;;;;;;1.10;1.00;;;;;;;16.29;41.24;99976.88;1738597;82;21527;-64
2022/03/27 08:58:01;;;;;;;1.92;1.10;;;;;;;16.30;41.22;99991.42;1738787;82;20996;-64
2022/03/27 09:00:30;;;;;;;1.20;0.90;;;;;;;16.30;41.19;100003.98;1738434;82;21030;-64
2022/03/27 09:02:58;;;;;;;0.90;0.90;;;;;;;16.31;41.16;99999.77;1738722;82;21853;-64
2022/03/27 09:05:25;;;;;;;1.30;1.20;;;;;;;16.32;41.13;99981.81;1713088;82;21003;-65
2022/03/27 09:07:54;;;;;;;0.90;0.90;;;;;;;16.34;41.12;100003.07;1738474;82;21070;-65
2022/03/27 09:10:23;;;;;;;1.15;0.90;;;;;;;16.35;41.10;100002.87;1712212;82;21450;-64
2022/03/27 09:12:52;;;;;;;1.17;1.07;;;;;;;16.36;41.11;100004.55;1687052;84;21081;-64
2022/03/27 09:15:23;;;;;;;1.30;1.20;;;;;;;16.38;41.10;99990.92;1686662;85;21266;-64
2022/03/27 09:18:04;;;;;;;1.70;1.25;;;;;;;16.39;41.06;100009.49;1686810;85;21662;-65
2022/03/27 09:20:46;;;;;;;0.90;0.90;;;;;;;16.41;41.05;100020.84;1686584;85;21049;-64
2022/03/27 09:23:31;;;;;;;0.78;0.78;;;;;;;16.43;41.04;100017.97;1686775;85;21524;-64
2022/03/27 09:26:00;;;;;;;1.10;1.02;;;;;;;16.45;41.03;100015.91;1686756;83;21092;-64
2022/03/27 09:28:39;;;;;;;1.10;1.00;;;;;;;16.46;41.00;100006.86;1715211;83;21215;-65
2022/03/27 09:31:18;;;;;;;0.88;0.88;;;;;;;16.46;40.98;100003.66;1710826;83;21481;-64
2022/03/27 09:33:51;;;;;;;0.95;0.95;;;;;;;16.47;40.95;100009.31;1715428;83;22089;-63
2022/03/27 09:36:32;;;;;;;1.35;1.25;;;;;;;16.48;40.92;99994.08;1715421;83;21549;-65
2022/03/27 09:39:10;;;;;;;0.85;0.85;;;;;;;16.50;40.93;100003.56;1715468;83;21076;-64
2022/03/27 09:41:54;;;;;;;1.00;0.90;;;;;;;16.51;40.91;100000.36;1715335;82;21249;-64
2022/03/27 09:44:24;;;;;;;1.07;1.02;;;;;;;16.53;40.87;100015.73;1734895;81;21034;-65
2022/03/27 09:47:00;;;;;;;1.20;1.10;;;;;;;16.54;40.89;100015.24;1703165;83;21062;-64
2022/03/27 09:49:35;;;;;;;0.90;0.90;;;;;;;16.56;40.86;100015.34;1721398;83;21530;-63
2022/03/27 09:52:24;;;;;;;2.05;0.90;;;;;;;16.58;40.87;100016.49;1721524;83;21019;-64
2022/03/27 09:55:03;;;;;;;0.90;0.90;;;;;;;16.61;40.90;100013.39;1721317;83;21168;-64
2022/03/27 09:57:35;;;;;;;1.30;1.00;;;;;;;16.63;40.91;100022.91;1738172;82;21224;-65
2022/03/27 10:00:21;;;;;;;0.90;0.90;;;;;;;16.66;40.93;100031.06;1749896;82;20999;-64
2022/03/27 10:02:51;;;;;;;1.85;1.20;;;;;;;16.67;40.88;100020.14;1721472;83;21015;-64
2022/03/27 10:05:19;;;;;;;1.30;1.10;;;;;;;16.68;40.85;100023.64;1686817;85;21328;-64
2022/03/27 10:07:52;;;;;;;1.10;1.00;;;;;;;16.71;40.87;100028.09;1686728;85;21029;-64
2022/03/27 10:10:23;;;;;;;1.20;1.10;;;;;;;16.76;41.03;100019.95;1686454;85;21085;-65
2022/03/27 10:12:53;;;;;;;0.80;0.80;;;;;;;16.82;41.07;100020.51;1680812;84;21557;-64
2022/03/27 10:15:28;;;;;;;1.20;1.10;;;;;;;16.87;41.08;100026.11;1679144;85;21053;-63
2022/03/27 10:18:05;;;;;;;0.88;0.80;;;;;;;16.92;40.98;100022.80;1680232;84;21049;-65
2022/03/27 10:20:36;;;;;;;1.25;0.90;;;;;;;16.97;41.02;100010.44;1679262;85;21817;-64
2022/03/27 10:23:16;;;;;;;0.93;0.90;;;;;;;17.04;41.08;100015.31;1679214;85;21081;-64
2022/03/27 10:25:46;;;;;;;1.25;1.17;;;;;;;17.12;41.16;100029.58;1679216;85;21026;-65
2022/03/27 10:28:13;;;;;;;1.20;1.10;;;;;;;17.19;41.22;100006.23;1679470;85;21085;-64
2022/03/27 10:30:41;;;;;;;1.20;1.10;;;;;;;17.26;41.24;100018.62;1679259;85;21006;-64
2022/03/27 10:33:07;;;;;;;1.40;1.30;;;;;;;17.35;41.26;100014.42;1679545;85;21299;-64
2022/03/27 10:35:56;;;;;;;0.90;0.90;;;;;;;17.42;41.32;100017.91;1691776;83;21085;-64
2022/03/27 10:38:54;;;;;;;1.02;0.90;;;;;;;17.48;41.24;100016.59;1679398;85;21049;-65
2022/03/27 10:41:39;;;;;;;1.75;1.00;;;;;;;17.57;41.25;100013.17;1731244;82;21086;-64
2022/03/27 10:44:46;;;;;;;1.50;1.10;;;;;;;17.67;41.33;100007.38;1740341;81;21151;-65
2022/03/27 10:47:17;;;;;;;1.95;1.10;;;;;;;17.78;41.28;100016.67;1707778;83;21581;-65
2022/03/27 10:50:04;;;;;;;1.20;1.10;;;;;;;17.87;41.11;99995.30;1743647;82;21001;-65
2022/03/27 10:52:46;;;;;;;1.20;1.10;;;;;;;17.94;40.96;100001.47;1682436;84;21062;-65
2022/03/27 10:55:15;;;;;;;1.07;0.98;;;;;;;18.04;40.96;100004.57;1743553;82;21506;-64
2022/03/27 10:57:45;;;;;;;1.00;1.00;;;;;;;18.11;40.99;99996.47;1743619;81;21097;-64
2022/03/27 11:00:14;;;;;;;0.93;0.93;;;;;;;18.20;40.95;99997.90;1743526;81;21227;-64
2022/03/27 11:02:50;;;;;;;1.00;1.00;;;;;;;18.28;40.91;100000.88;1743047;81;21653;-64
2022/03/27 11:05:37;;;;;;;1.55;0.90;;;;;;;18.37;40.98;100009.52;1693675;84;21085;-64
2022/03/27 11:08:23;;;;;;;1.10;1.05;;;;;;;18.44;40.86;100004.95;1707359;84;21018;-64
2022/03/27 11:10:59;;;;;;;1.22;1.00;;;;;;;18.50;40.76;100001.39;1679437;85;20986;-65
2022/03/27 11:13:33;;;;;;;1.00;1.00;;;;;;;18.53;40.66;99994.78;1686139;84;21788;-63
2022/03/27 11:16:14;;;;;;;1.00;1.00;;;;;;;18.58;40.68;100002.52;1686686;85;21021;-65
2022/03/27 11:18:48;;;;;;;0.80;0.80;;;;;;;18.63;40.59;99997.83;1686751;85;21052;-65
2022/03/27 11:21:29;;;;;;;1.00;1.00;;;;;;;18.66;40.57;99998.76;1687107;85;21077;-64
2022/03/27 11:24:09;;;;;;;1.00;1.00;;;;;;;18.70;40.51;100006.70;1721192;83;21018;-64
2022/03/27 11:26:35;;;;;;;0.93;0.93;;;;;;;18.74;40.51;99998.50;1719169;82;21287;-64
2022/03/27 11:29:24;;;;;;;1.00;1.00;;;;;;;18.78;40.45;100011.83;1721532;83;21081;-64
2022/03/27 11:32:10;;;;;;;0.98;0.98;;;;;;;18.83;40.40;99992.36;1721544;83;21557;-65
2022/03/27 11:34:38;;;;;;;1.00;1.00;;;;;;;18.89;40.22;100007.67;1721574;83;21066;-65
2022/03/27 11:37:22;;;;;;;0.90;0.90;;;;;;;18.92;40.12;99999.14;1721708;83;21006;-64
2022/03/27 11:39:46;;;;;;;0.90;0.90;;;;;;;18.96;40.06;100011.13;1721108;83;21219;-64
2022/03/27 11:42:28;;;;;;;0.90;0.90;;;;;;;18.99;39.89;100001.28;1711390;82;20982;-65
2022/03/27 11:45:16;;;;;;;0.98;0.95;;;;;;;19.03;39.81;100017.83;1685145;84;21058;-65
2022/03/27 11:47:47;;;;;;;1.55;1.00;;;;;;;19.10;39.72;100012.39;1686679;85;21049;-64
2022/03/27 11:50:26;;;;;;;1.20;1.10;;;;;;;19.18;39.67;100012.97;1686604;85;22047;-64